createdAt,value
2018-05-10T00:01:46.864Z,5.83
2018-05-10T00:04:14.444Z,6.53
2018-05-10T00:06:42.115Z,5.40
2018-05-10T00:09:09.524Z,6.07
2018-05-10T00:11:36.916Z,6.03
2018-05-10T00:14:04.311Z,5.37
2018-05-10T00:16:31.923Z,6.37
2018-05-10T00:18:59.536Z,5.80
2018-05-10T00:21:27.223Z,5.60
2018-05-10T00:23:54.808Z,5.00
2018-05-10T00:26:23.144Z,5.77
2018-05-10T00:28:50.847Z,5.60
2018-05-10T00:31:18.425Z,5.95
2018-05-10T00:33:45.864Z,5.80
2018-05-10T00:36:13.588Z,6.07
2018-05-10T00:38:40.937Z,5.30
2018-05-10T00:41:08.319Z,6.23
2018-05-10T00:43:35.705Z,6.77
2018-05-10T00:46:03.086Z,5.70
2018-05-10T00:48:30.475Z,6.40
2018-05-10T00:50:57.855Z,5.57
2018-05-10T00:53:25.245Z,5.80
2018-05-10T00:55:52.645Z,6.05
2018-05-10T00:58:20.047Z,6.37
2018-05-10T01:00:47.416Z,6.03
2018-05-10T01:03:14.797Z,7.43
2018-05-10T01:05:42.196Z,7.17
2018-05-10T01:08:09.574Z,7.27
2018-05-10T01:10:36.959Z,6.33
2018-05-10T01:13:04.339Z,7.90
2018-05-10T01:15:31.734Z,7.37
2018-05-10T01:17:59.113Z,7.20
2018-05-10T01:20:26.499Z,7.40
2018-05-10T01:22:53.888Z,7.30
2018-05-10T01:25:21.272Z,7.23
2018-05-10T01:27:48.656Z,6.43
2018-05-10T01:30:16.047Z,6.90
2018-05-10T01:32:43.962Z,6.95
2018-05-10T01:35:23.046Z,7.90
2018-05-10T01:37:50.410Z,7.70
2018-05-10T01:40:17.784Z,7.10
2018-05-10T01:42:45.167Z,6.73
2018-05-10T01:45:12.559Z,7.27
2018-05-10T01:47:39.941Z,7.67
2018-05-10T01:50:07.317Z,7.30
2018-05-10T01:52:34.708Z,8.07
2018-05-10T01:55:02.084Z,8.00
2018-05-10T01:57:29.468Z,7.70
2018-05-10T01:59:56.838Z,8.10
2018-05-10T02:02:24.219Z,8.83
2018-05-10T02:04:51.613Z,9.05
2018-05-10T02:07:19.013Z,7.70
2018-05-10T02:09:46.403Z,8.87
2018-05-10T02:12:14.592Z,8.02
2018-05-10T02:14:42.083Z,8.60
2018-05-10T02:17:09.489Z,7.90
2018-05-10T02:19:36.983Z,9.50
2018-05-10T02:22:04.368Z,8.47
2018-05-10T02:24:31.964Z,8.90
2018-05-10T02:26:59.412Z,8.70
2018-05-10T02:29:27.104Z,9.40
2018-05-10T02:31:54.494Z,9.53
2018-05-10T02:34:21.963Z,8.47
2018-05-10T02:36:49.340Z,8.48
2018-05-10T02:39:16.732Z,8.13
2018-05-10T02:41:44.290Z,7.83
2018-05-10T02:44:11.722Z,8.70
2018-05-10T02:46:39.152Z,8.27
2018-05-10T02:49:06.527Z,8.37
2018-05-10T02:51:34.002Z,8.40
2018-05-10T02:54:01.371Z,8.20
2018-05-10T02:56:28.752Z,7.80
2018-05-10T02:58:56.136Z,8.07
2018-05-10T03:01:23.506Z,8.33
2018-05-10T03:03:50.892Z,7.80
2018-05-10T03:06:18.378Z,8.70
2018-05-10T03:08:45.974Z,8.13
2018-05-10T03:11:13.335Z,7.80
2018-05-10T03:13:40.774Z,7.93
2018-05-10T03:16:08.142Z,8.40
2018-05-10T03:18:35.524Z,7.93
2018-05-10T03:21:02.971Z,7.90
2018-05-10T03:23:30.352Z,7.90
2018-05-10T03:25:57.727Z,8.77
2018-05-10T03:28:25.109Z,8.23
2018-05-10T03:30:52.479Z,8.35
2018-05-10T03:33:19.903Z,8.53
2018-05-10T03:35:47.251Z,8.90
2018-05-10T03:38:14.945Z,9.30
2018-05-10T03:40:42.570Z,8.73
2018-05-10T03:43:10.169Z,8.90
2018-05-10T03:45:37.551Z,8.43
2018-05-10T03:48:04.952Z,7.87
2018-05-10T03:50:32.333Z,8.40
2018-05-10T03:52:59.749Z,7.53
2018-05-10T03:55:27.127Z,8.70
2018-05-10T03:57:54.511Z,8.33
2018-05-10T04:00:21.914Z,9.57
2018-05-10T04:06:11.861Z,8.53
2018-05-10T04:08:50.943Z,8.43
2018-05-10T04:11:28.487Z,8.63
2018-05-10T04:13:55.876Z,8.93
2018-05-10T04:16:23.267Z,8.83
2018-05-10T04:18:51.433Z,8.65
2018-05-10T04:21:18.815Z,8.73
2018-05-10T04:23:46.187Z,9.57
2018-05-10T04:26:13.566Z,9.03
2018-05-10T04:28:40.951Z,9.80
2018-05-10T04:31:08.629Z,9.60
2018-05-10T04:33:36.010Z,9.47
2018-05-10T04:36:03.399Z,9.00
2018-05-10T04:38:31.215Z,9.68
2018-05-10T04:40:58.612Z,10.10
2018-05-10T04:43:25.990Z,8.75
2018-05-10T04:45:53.367Z,8.57
2018-05-10T04:48:20.760Z,7.90
2018-05-10T04:50:48.127Z,8.83
2018-05-10T04:53:15.544Z,8.70
2018-05-10T04:55:42.913Z,8.68
2018-05-10T04:58:10.331Z,9.03
2018-05-10T05:00:37.715Z,9.43
2018-05-10T05:03:05.110Z,9.27
2018-05-10T05:05:32.484Z,9.13
2018-05-10T05:07:59.901Z,8.93
2018-05-10T05:10:27.272Z,8.60
2018-05-10T05:12:54.670Z,8.80
2018-05-10T05:15:22.954Z,8.30
2018-05-10T05:17:50.340Z,9.17
2018-05-10T05:20:17.736Z,9.23
2018-05-10T05:22:45.199Z,9.77
2018-05-10T05:25:12.579Z,10.20
2018-05-10T05:27:39.976Z,9.80
2018-05-10T05:30:07.406Z,10.10
2018-05-10T05:32:34.778Z,9.60
2018-05-10T05:35:02.288Z,10.73
2018-05-10T05:37:29.705Z,12.10
2018-05-10T05:39:57.107Z,12.43
2018-05-10T05:42:24.493Z,10.80
2018-05-10T05:44:51.879Z,11.77
2018-05-10T05:47:19.278Z,12.77
2018-05-10T05:49:46.670Z,12.03
2018-05-10T05:52:14.062Z,12.10
2018-05-10T05:54:41.461Z,11.97
2018-05-10T05:57:08.854Z,12.10
2018-05-10T05:59:36.230Z,11.27
2018-05-10T06:02:03.623Z,11.70
2018-05-10T06:04:31.018Z,11.73
2018-05-10T06:06:58.412Z,12.20
2018-05-10T06:09:25.807Z,11.50
2018-05-10T06:11:53.203Z,10.57
2018-05-10T06:14:20.599Z,10.77
2018-05-10T06:16:47.987Z,12.77
2018-05-10T06:19:16.798Z,12.18
2018-05-10T06:21:44.189Z,12.70
2018-05-10T06:24:11.574Z,12.80
2018-05-10T06:26:38.955Z,12.97
2018-05-10T06:29:06.393Z,14.87
2018-05-10T06:31:33.913Z,14.90
2018-05-10T06:34:01.318Z,14.97
2018-05-10T06:36:28.689Z,15.10
2018-05-10T06:38:56.085Z,14.23
2018-05-10T06:41:23.519Z,16.23
2018-05-10T06:43:50.855Z,19.48
2018-05-10T06:46:18.232Z,20.20
2018-05-10T06:48:45.662Z,20.03
2018-05-10T06:51:13.042Z,21.07
2018-05-10T06:53:40.485Z,21.93
2018-05-10T06:56:07.921Z,21.50
2018-05-10T06:58:35.402Z,22.20
2018-05-10T07:01:02.775Z,24.27
2018-05-10T07:03:30.244Z,25.08
2018-05-10T07:05:57.643Z,26.70
2018-05-10T07:08:25.028Z,29.70
2018-05-10T07:10:52.432Z,31.87
2018-05-10T07:13:19.814Z,36.35
2018-05-10T07:15:47.252Z,37.27
2018-05-10T07:18:14.635Z,43.03
2018-05-10T07:20:42.045Z,41.90
2018-05-10T07:23:09.667Z,43.07
2018-05-10T07:25:37.085Z,44.40
2018-05-10T07:28:04.465Z,46.53
2018-05-10T07:30:31.846Z,45.10
2018-05-10T07:32:59.293Z,48.70
2018-05-10T07:35:26.693Z,49.10
2018-05-10T07:37:54.062Z,50.90
2018-05-10T07:40:21.486Z,46.75
2018-05-10T07:42:48.867Z,48.30
2018-05-10T07:45:16.255Z,48.70
2018-05-10T07:47:43.654Z,47.40
2018-05-10T07:50:11.047Z,48.60
2018-05-10T07:52:38.444Z,48.23
2018-05-10T07:55:05.843Z,48.97
2018-05-10T07:57:33.496Z,50.73
2018-05-10T08:00:00.896Z,49.92
2018-05-10T08:02:28.284Z,48.70
2018-05-10T08:04:55.696Z,49.10
2018-05-10T08:07:23.081Z,48.30
2018-05-10T08:09:50.475Z,42.58
2018-05-10T08:12:17.853Z,41.50
2018-05-10T08:14:46.128Z,43.50
2018-05-10T08:17:13.524Z,42.77
2018-05-10T08:19:40.918Z,46.60
2018-05-10T08:22:08.303Z,45.50
2018-05-10T08:24:35.708Z,42.07
2018-05-10T08:27:03.109Z,45.95
2018-05-10T08:29:30.538Z,44.97
2018-05-10T08:31:57.908Z,41.92
2018-05-10T08:34:25.308Z,45.15
2018-05-10T08:36:52.707Z,43.50
2018-05-10T08:39:20.125Z,45.85
2018-05-10T08:41:47.509Z,45.67
2018-05-10T08:44:14.931Z,42.83
2018-05-10T08:46:42.323Z,43.63
2018-05-10T08:49:09.727Z,44.67
2018-05-10T08:51:37.157Z,40.85
2018-05-10T08:54:04.508Z,42.03
2018-05-10T08:56:32.039Z,39.88
2018-05-10T08:58:59.417Z,43.13
2018-05-10T09:01:26.862Z,40.58
2018-05-10T09:03:54.279Z,40.67
2018-05-10T09:06:21.679Z,38.90
2018-05-10T09:08:49.076Z,37.47
2018-05-10T09:11:16.503Z,39.30
2018-05-10T09:13:43.886Z,37.10
2018-05-10T09:16:11.290Z,37.43
2018-05-10T09:18:38.674Z,36.27
2018-05-10T09:21:06.065Z,36.57
2018-05-10T09:23:33.452Z,34.20
2018-05-10T09:26:00.868Z,36.73
2018-05-10T09:28:28.236Z,35.65
2018-05-10T09:30:55.655Z,35.78
2018-05-10T09:33:23.037Z,35.10
2018-05-10T09:35:50.433Z,34.95
2018-05-10T09:38:17.827Z,35.63
2018-05-10T09:40:45.860Z,33.77
2018-05-10T09:43:13.240Z,34.37
2018-05-10T09:45:40.637Z,34.17
2018-05-10T09:48:08.019Z,31.43
2018-05-10T09:50:35.557Z,33.30
2018-05-10T09:53:02.930Z,34.30
2018-05-10T09:55:30.449Z,31.20
2018-05-10T09:57:57.848Z,30.83
2018-05-10T10:00:30.242Z,31.37
2018-05-10T10:02:57.638Z,25.90
2018-05-10T10:05:25.024Z,29.83
2018-05-10T10:07:52.707Z,31.30
2018-05-10T10:10:20.111Z,30.07
2018-05-10T10:12:47.485Z,29.50
2018-05-10T10:15:14.890Z,28.90
2018-05-10T10:17:42.374Z,26.90
2018-05-10T10:20:09.678Z,26.53
2018-05-10T10:22:37.065Z,25.80
2018-05-10T10:25:04.459Z,24.05
2018-05-10T10:27:32.067Z,25.87
2018-05-10T10:29:59.489Z,24.20
2018-05-10T10:32:27.120Z,25.13
2018-05-10T10:34:54.465Z,25.77
2018-05-10T10:37:21.857Z,25.60
2018-05-10T10:39:49.247Z,27.43
2018-05-10T10:42:16.804Z,26.27
2018-05-10T10:44:44.269Z,27.63
2018-05-10T10:47:11.669Z,25.47
2018-05-10T10:49:39.104Z,23.07
2018-05-10T10:52:06.521Z,22.27
2018-05-10T10:54:33.928Z,23.20
2018-05-10T10:57:01.311Z,24.80
2018-05-10T10:59:28.887Z,24.80
2018-05-10T11:01:56.330Z,24.13
2018-05-10T11:04:23.683Z,23.85
2018-05-10T11:06:51.105Z,23.60
2018-05-10T11:09:18.650Z,23.20
2018-05-10T11:11:47.246Z,21.95
2018-05-10T11:14:14.681Z,21.50
2018-05-10T11:16:42.123Z,21.10
2018-05-10T11:19:09.532Z,21.03
2018-05-10T11:21:36.940Z,19.63
2018-05-10T11:24:04.339Z,20.48
2018-05-10T11:26:31.740Z,19.67
2018-05-10T11:28:59.159Z,19.20
2018-05-10T11:31:26.630Z,17.95
2018-05-10T11:33:54.041Z,20.08
2018-05-10T11:36:21.432Z,18.70
2018-05-10T11:38:48.826Z,19.33
2018-05-10T11:41:17.133Z,18.02
2018-05-10T11:43:44.553Z,21.00
2018-05-10T11:46:11.942Z,21.53
2018-05-10T11:48:39.408Z,22.50
2018-05-10T11:51:06.778Z,20.23
2018-05-10T11:53:34.164Z,21.90
2018-05-10T11:56:01.556Z,24.50
2018-05-10T11:58:28.951Z,20.97
2018-05-10T12:00:56.351Z,22.13
2018-05-10T12:03:23.741Z,22.77
2018-05-10T12:05:52.896Z,21.12
2018-05-10T12:08:20.278Z,21.47
2018-05-10T12:10:47.685Z,21.93
2018-05-10T12:13:15.094Z,22.52
2018-05-10T12:15:42.476Z,22.40
2018-05-10T12:18:09.871Z,20.73
2018-05-10T12:20:37.264Z,19.70
2018-05-10T12:23:04.653Z,20.13
2018-05-10T12:25:32.116Z,21.33
2018-05-10T12:27:59.437Z,19.40
2018-05-10T12:30:26.909Z,20.60
2018-05-10T12:32:54.224Z,19.13
2018-05-10T12:35:21.611Z,20.00
2018-05-10T12:37:49.051Z,18.70
2018-05-10T12:40:17.396Z,18.02
2018-05-10T12:42:44.791Z,20.00
2018-05-10T12:45:12.176Z,19.50
2018-05-10T12:47:39.563Z,20.07
2018-05-10T12:50:06.966Z,18.20
2018-05-10T12:52:34.359Z,19.10
2018-05-10T12:55:01.759Z,20.30
2018-05-10T12:57:29.336Z,20.70
2018-05-10T12:59:56.800Z,21.03
2018-05-10T13:02:24.251Z,20.12
2018-05-10T13:04:51.680Z,21.02
2018-05-10T13:07:19.585Z,21.57
2018-05-10T13:09:47.672Z,21.00
2018-05-10T13:12:15.116Z,20.37
2018-05-10T13:14:42.514Z,20.50
2018-05-10T13:17:09.911Z,21.40
2018-05-10T13:19:37.299Z,19.67
2018-05-10T13:22:04.700Z,19.33
2018-05-10T13:24:32.389Z,17.20
2018-05-10T13:26:59.773Z,18.27
2018-05-10T13:29:27.190Z,17.80
2018-05-10T13:31:54.556Z,16.40
2018-05-10T13:34:22.139Z,15.80
2018-05-10T13:36:49.533Z,16.53
2018-05-10T13:39:17.719Z,14.50
2018-05-10T13:41:45.143Z,15.33
2018-05-10T13:44:12.592Z,15.60
2018-05-10T13:46:40.254Z,14.90
2018-05-10T13:49:07.608Z,14.77
2018-05-10T13:51:34.994Z,14.00
2018-05-10T13:54:02.387Z,12.57
2018-05-10T13:56:29.777Z,13.13
2018-05-10T13:58:57.319Z,15.00
2018-05-10T14:01:24.693Z,15.10
2018-05-10T14:03:52.086Z,16.73
2018-05-10T14:06:19.471Z,17.03
2018-05-10T14:08:47.802Z,17.62
2018-05-10T14:11:15.204Z,19.30
2018-05-10T14:13:42.898Z,18.10
2018-05-10T14:16:10.390Z,19.80
2018-05-10T14:18:37.794Z,19.43
2018-05-10T14:21:05.184Z,19.40
2018-05-10T14:23:32.588Z,21.50
2018-05-10T14:26:00.972Z,22.37
2018-05-10T14:28:28.380Z,23.07
2018-05-10T14:30:55.793Z,23.83
2018-05-10T14:33:23.201Z,22.13
2018-05-10T14:35:50.610Z,22.67
2018-05-10T14:38:18.000Z,19.50
2018-05-10T14:40:45.383Z,11.87
2018-05-10T14:43:12.784Z,11.60
2018-05-10T14:45:40.309Z,11.73
2018-05-10T14:48:07.720Z,12.07
2018-05-10T14:50:35.140Z,12.30
2018-05-10T14:53:02.519Z,11.20
2018-05-10T14:55:29.916Z,10.68
2018-05-10T14:57:57.290Z,9.67
2018-05-10T15:00:24.680Z,9.83
2018-05-10T15:02:52.259Z,8.50
2018-05-10T15:05:19.696Z,8.47
2018-05-10T15:07:48.144Z,8.25
2018-05-10T15:10:15.635Z,8.50
2018-05-10T15:12:43.032Z,6.90
2018-05-10T15:15:10.441Z,6.93
2018-05-10T15:17:37.827Z,7.00
2018-05-10T15:20:05.212Z,7.00
2018-05-10T15:22:32.605Z,6.63
2018-05-10T15:24:59.990Z,7.07
2018-05-10T15:27:28.571Z,7.10
2018-05-10T15:29:56.068Z,7.00
2018-05-10T15:32:23.472Z,6.80
2018-05-10T15:34:50.956Z,5.77
2018-05-10T15:37:18.919Z,5.80
2018-05-10T15:39:46.314Z,5.23
2018-05-10T15:42:13.707Z,7.17
2018-05-10T15:44:41.078Z,7.13
2018-05-10T15:47:08.463Z,5.80
2018-05-10T15:49:35.854Z,6.28
2018-05-10T15:52:03.266Z,6.28
2018-05-10T15:54:30.645Z,7.50
2018-05-10T15:56:58.062Z,6.05
2018-05-10T15:59:25.563Z,6.20
2018-05-10T16:01:52.820Z,7.00
2018-05-10T16:04:20.212Z,7.53
2018-05-10T16:06:48.385Z,6.70
2018-05-10T16:09:15.782Z,7.13
2018-05-10T16:11:43.201Z,6.70
2018-05-10T16:14:10.604Z,7.73
2018-05-10T16:16:37.980Z,8.50
2018-05-10T16:19:05.378Z,8.00
2018-05-10T16:21:32.914Z,9.00
2018-05-10T16:24:00.483Z,8.93
2018-05-10T16:26:27.914Z,8.80
2018-05-10T16:28:55.506Z,8.97
2018-05-10T16:31:22.936Z,9.73
2018-05-10T16:33:50.761Z,9.07
2018-05-10T16:36:19.881Z,10.02
2018-05-10T16:38:47.336Z,10.00
2018-05-10T16:41:14.813Z,10.40
2018-05-10T16:43:42.224Z,10.50
2018-05-10T16:46:09.817Z,11.43
2018-05-10T16:48:37.206Z,10.47
2018-05-10T16:51:04.599Z,10.60
2018-05-10T16:53:32.002Z,13.00
2018-05-10T16:55:59.492Z,12.10
2018-05-10T16:58:26.907Z,11.02
2018-05-10T17:00:54.330Z,12.25
2018-05-10T17:03:21.734Z,11.95
2018-05-10T17:05:49.124Z,11.80
2018-05-10T17:08:16.541Z,13.07
2018-05-10T17:10:43.935Z,12.63
2018-05-10T17:13:11.332Z,12.47
2018-05-10T17:15:38.724Z,13.00
2018-05-10T17:18:06.115Z,13.67
2018-05-10T17:20:33.508Z,13.90
2018-05-10T17:23:01.168Z,12.00
2018-05-10T17:25:28.579Z,9.73
2018-05-10T17:27:55.965Z,8.17
2018-05-10T17:30:23.362Z,7.60
2018-05-10T17:32:50.789Z,7.13
2018-05-10T17:35:18.874Z,7.45
2018-05-10T17:37:46.267Z,6.93
2018-05-10T17:40:13.647Z,7.30
2018-05-10T17:42:41.056Z,7.80
2018-05-10T17:45:08.439Z,8.10
2018-05-10T17:47:35.835Z,6.22
2018-05-10T17:50:03.211Z,6.90
2018-05-10T17:52:30.615Z,8.00
2018-05-10T17:54:58.008Z,6.75
2018-05-10T17:57:25.707Z,9.48
2018-05-10T17:59:53.097Z,7.07
2018-05-10T18:02:20.474Z,7.30
2018-05-10T18:04:47.886Z,8.80
2018-05-10T18:07:15.309Z,7.50
2018-05-10T18:09:42.652Z,7.90
2018-05-10T18:12:10.047Z,8.00
2018-05-10T18:14:37.438Z,7.53
2018-05-10T18:17:05.035Z,9.25
2018-05-10T18:19:32.431Z,7.30
2018-05-10T18:21:59.827Z,7.80
2018-05-10T18:24:27.228Z,6.78
2018-05-10T18:26:54.708Z,7.30
2018-05-10T18:29:22.031Z,8.17
2018-05-10T18:31:49.423Z,9.37
2018-05-10T18:34:16.825Z,8.10
2018-05-10T18:36:44.216Z,8.43
2018-05-10T18:39:11.616Z,8.90
2018-05-10T18:41:39.014Z,8.50
2018-05-10T18:44:06.438Z,8.00
2018-05-10T18:46:34.080Z,7.20
2018-05-10T18:49:01.635Z,7.17
2018-05-10T18:51:29.023Z,7.03
2018-05-10T18:53:56.453Z,7.55
2018-05-10T18:56:23.825Z,7.00
2018-05-10T18:58:51.554Z,7.75
2018-05-10T19:01:20.206Z,7.62
2018-05-10T19:03:47.616Z,7.70
2018-05-10T19:06:16.439Z,9.37
2018-05-10T19:08:43.819Z,8.60
2018-05-10T19:11:11.207Z,8.07
2018-05-10T19:13:38.601Z,8.57
2018-05-10T19:16:05.975Z,8.13
2018-05-10T19:18:33.374Z,8.67
2018-05-10T19:21:00.824Z,8.10
2018-05-10T19:23:28.163Z,7.60
2018-05-10T19:25:55.559Z,7.62
2018-05-10T19:28:22.967Z,7.70
2018-05-10T19:30:50.359Z,7.10
2018-05-10T19:33:17.759Z,7.37
2018-05-10T19:35:45.175Z,7.37
2018-05-10T19:38:12.583Z,7.50
2018-05-10T19:40:40.006Z,7.90
2018-05-10T19:43:07.405Z,7.22
2018-05-10T19:45:34.800Z,7.50
2018-05-10T19:48:02.198Z,7.30
2018-05-10T19:50:29.597Z,7.63
2018-05-10T19:52:56.988Z,6.87
2018-05-10T19:55:26.836Z,6.85
2018-05-10T19:57:54.207Z,7.60
2018-05-10T20:00:21.629Z,7.70
2018-05-10T20:02:49.564Z,7.18
2018-05-10T20:05:17.013Z,7.63
2018-05-10T20:07:44.391Z,7.07
2018-05-10T20:10:11.779Z,7.67
2018-05-10T20:12:39.171Z,7.30
2018-05-10T20:15:06.607Z,7.62
2018-05-10T20:17:33.998Z,7.90
2018-05-10T20:20:01.389Z,8.07
2018-05-10T20:22:28.765Z,7.60
2018-05-10T20:24:56.156Z,8.17
2018-05-10T20:27:23.534Z,6.77
2018-05-10T20:29:50.960Z,7.90
2018-05-10T20:32:18.554Z,8.00
2018-05-10T20:34:46.842Z,8.53
2018-05-10T20:37:14.203Z,7.77
2018-05-10T20:39:41.595Z,8.63
2018-05-10T20:42:08.974Z,8.03
2018-05-10T20:44:36.439Z,8.77
2018-05-10T20:47:03.751Z,8.47
2018-05-10T20:49:31.157Z,8.18
2018-05-10T20:51:58.762Z,7.60
2018-05-10T20:54:26.422Z,8.17
2018-05-10T20:56:54.179Z,9.33
2018-05-10T20:59:21.594Z,8.10
2018-05-10T21:01:50.124Z,8.30
2018-05-10T21:04:17.583Z,8.10
2018-05-10T21:06:45.118Z,8.17
2018-05-10T21:09:12.526Z,8.60
2018-05-10T21:11:39.973Z,8.43
2018-05-10T21:14:07.407Z,8.20
2018-05-10T21:16:34.861Z,8.13
2018-05-10T21:19:02.230Z,9.60
2018-05-10T21:21:29.646Z,8.53
2018-05-10T21:23:58.093Z,9.07
2018-05-10T21:26:25.500Z,9.00
2018-05-10T21:28:52.884Z,9.30
2018-05-10T21:31:20.260Z,9.63
2018-05-10T21:33:48.163Z,9.23
2018-05-10T21:36:15.507Z,8.63
2018-05-10T21:38:42.883Z,8.20
2018-05-10T21:41:10.285Z,8.60
2018-05-10T21:43:37.669Z,8.77
2018-05-10T21:46:05.071Z,9.27
2018-05-10T21:48:33.078Z,9.17
2018-05-10T21:51:00.480Z,9.10
2018-05-10T21:53:27.880Z,10.13
2018-05-10T21:55:55.280Z,8.20
2018-05-10T21:58:22.692Z,9.37
2018-05-10T22:00:50.102Z,9.27
2018-05-10T22:03:17.499Z,8.50
2018-05-10T22:05:44.887Z,9.60
2018-05-10T22:08:12.280Z,9.50
2018-05-10T22:10:39.684Z,9.83
2018-05-10T22:13:07.075Z,9.55
2018-05-10T22:15:34.476Z,9.03
2018-05-10T22:18:01.946Z,9.43
2018-05-10T22:20:29.264Z,9.43
2018-05-10T22:22:56.644Z,9.52
2018-05-10T22:25:24.050Z,9.70
2018-05-10T22:27:51.442Z,9.40
2018-05-10T22:30:18.918Z,9.77
2018-05-10T22:32:46.324Z,9.10
2018-05-10T22:35:13.716Z,9.57
2018-05-10T22:37:41.097Z,9.80
2018-05-10T22:40:08.501Z,9.80
2018-05-10T22:42:35.887Z,9.80
2018-05-10T22:45:03.284Z,9.68
2018-05-10T22:47:30.679Z,8.85
2018-05-10T22:49:58.070Z,9.27
2018-05-10T22:52:25.465Z,9.43
2018-05-10T22:54:52.851Z,9.17
2018-05-10T22:57:20.384Z,8.93
2018-05-10T22:59:47.863Z,9.47
2018-05-10T23:02:15.213Z,9.10
2018-05-10T23:04:42.618Z,10.00
2018-05-10T23:07:10.004Z,9.60
2018-05-10T23:09:37.415Z,9.70
2018-05-10T23:12:04.902Z,9.10
2018-05-10T23:14:32.388Z,9.60
2018-05-10T23:16:59.779Z,9.33
2018-05-10T23:19:27.184Z,10.23
2018-05-10T23:21:54.585Z,9.63
2018-05-10T23:24:21.989Z,10.17
2018-05-10T23:26:49.395Z,9.50
2018-05-10T23:29:16.783Z,9.60
2018-05-10T23:31:44.177Z,10.20
2018-05-10T23:34:11.564Z,10.60
2018-05-10T23:36:38.959Z,10.10
2018-05-10T23:39:06.353Z,9.13
2018-05-10T23:41:33.737Z,10.73
2018-05-10T23:44:01.155Z,9.75
2018-05-10T23:46:28.568Z,9.90
2018-05-10T23:48:55.956Z,9.45
2018-05-10T23:51:23.358Z,10.17
2018-05-10T23:53:50.751Z,10.20
2018-05-10T23:56:18.144Z,9.90
2018-05-10T23:58:45.543Z,10.03
